createdAt,value
2024-05-09T00:00:35.956Z,8.87
2024-05-09T00:03:10.171Z,8.85
2024-05-09T00:05:38.296Z,8.81
2024-05-09T00:08:06.453Z,8.79
2024-05-09T00:10:37.008Z,8.78
2024-05-09T00:13:07.242Z,8.76
2024-05-09T00:15:34.835Z,8.75
2024-05-09T00:18:03.013Z,8.70
2024-05-09T00:20:37.458Z,8.69
2024-05-09T00:23:08.009Z,8.67
2024-05-09T00:25:35.288Z,8.63
2024-05-09T00:28:02.376Z,8.58
2024-05-09T00:30:34.360Z,8.57
2024-05-09T00:33:04.512Z,8.53
2024-05-09T00:35:32.281Z,8.51
2024-05-09T00:37:59.037Z,8.48
2024-05-09T00:40:35.357Z,8.47
2024-05-09T00:43:06.716Z,8.45
2024-05-09T00:45:34.872Z,8.41
2024-05-09T00:48:04.898Z,8.37
2024-05-09T00:50:36.598Z,8.34
2024-05-09T00:53:06.680Z,8.31
2024-05-09T00:55:36.475Z,8.27
2024-05-09T00:58:04.938Z,8.24
2024-05-09T01:00:38.556Z,8.20
2024-05-09T01:03:08.810Z,8.16
2024-05-09T01:05:38.856Z,8.12
2024-05-09T01:08:06.226Z,8.08
2024-05-09T01:10:35.058Z,8.06
2024-05-09T01:13:04.051Z,8.04
2024-05-09T01:15:30.820Z,8.01
2024-05-09T01:17:58.561Z,7.98
2024-05-09T01:20:36.589Z,7.93
2024-05-09T01:23:09.379Z,7.93
2024-05-09T01:25:36.452Z,7.89
2024-05-09T01:28:03.066Z,7.87
2024-05-09T01:30:34.764Z,7.81
2024-05-09T01:33:04.459Z,7.76
2024-05-09T01:35:31.563Z,7.72
2024-05-09T01:37:58.196Z,7.70
2024-05-09T01:40:33.621Z,7.69
2024-05-09T01:43:04.690Z,7.67
2024-05-09T01:45:31.365Z,7.67
2024-05-09T01:47:58.403Z,7.67
2024-05-09T01:50:37.170Z,7.66
2024-05-09T01:53:07.762Z,7.60
2024-05-09T01:55:34.440Z,7.56
2024-05-09T01:58:01.012Z,7.53
2024-05-09T02:00:37.649Z,7.50
2024-05-09T02:03:11.564Z,7.46
2024-05-09T02:05:41.183Z,7.44
2024-05-09T02:08:14.772Z,7.38
2024-05-09T02:10:41.467Z,7.37
2024-05-09T02:13:08.061Z,7.35
2024-05-09T02:15:34.718Z,7.30
2024-05-09T02:18:01.446Z,7.28
2024-05-09T02:20:35.201Z,7.23
2024-05-09T02:23:05.088Z,7.22
2024-05-09T02:25:32.581Z,7.21
2024-05-09T02:27:59.500Z,7.20
2024-05-09T02:30:35.839Z,7.17
2024-05-09T02:33:07.150Z,7.17
2024-05-09T02:35:34.130Z,7.14
2024-05-09T02:38:01.378Z,7.12
2024-05-09T02:40:35.842Z,7.10
2024-05-09T02:43:05.246Z,7.07
2024-05-09T02:45:31.979Z,7.03
2024-05-09T02:47:58.828Z,6.99
2024-05-09T02:50:33.794Z,6.93
2024-05-09T02:53:05.034Z,6.90
2024-05-09T02:55:31.967Z,6.84
2024-05-09T02:57:58.579Z,6.84
2024-05-09T03:00:34.292Z,6.84
2024-05-09T03:03:07.064Z,6.82
2024-05-09T03:05:34.190Z,6.76
2024-05-09T03:08:01.030Z,6.77
2024-05-09T03:10:29.193Z,6.77
2024-05-09T03:13:06.129Z,6.75
2024-05-09T03:15:33.005Z,6.71
2024-05-09T03:18:00.755Z,6.67
2024-05-09T03:20:33.283Z,6.65
2024-05-09T03:23:02.269Z,6.63
2024-05-09T03:25:29.022Z,6.61
2024-05-09T03:27:55.687Z,6.60
2024-05-09T03:30:31.224Z,6.58
2024-05-09T03:33:10.518Z,6.56
2024-05-09T03:35:37.794Z,6.54
2024-05-09T03:38:04.707Z,6.53
2024-05-09T03:40:31.498Z,6.50
2024-05-09T03:42:58.775Z,6.49
2024-05-09T03:45:25.459Z,6.48
2024-05-09T03:47:52.494Z,6.48
2024-05-09T03:50:26.383Z,6.47
2024-05-09T03:53:00.345Z,6.44
2024-05-09T03:55:27.107Z,6.43
2024-05-09T03:57:53.665Z,6.43
2024-05-09T04:00:30.404Z,6.40
2024-05-09T04:03:02.567Z,6.40
2024-05-09T04:05:30.744Z,6.41
2024-05-09T04:07:57.648Z,6.41
2024-05-09T04:10:31.169Z,6.42
2024-05-09T04:13:00.383Z,6.43
2024-05-09T04:15:27.020Z,6.42
2024-05-09T04:17:53.770Z,6.43
2024-05-09T04:20:29.384Z,6.42
2024-05-09T04:23:04.337Z,6.42
2024-05-09T04:25:32.078Z,6.46
2024-05-09T04:27:58.660Z,6.49
2024-05-09T04:30:34.596Z,6.51
2024-05-09T04:33:06.174Z,6.55
2024-05-09T04:35:33.336Z,6.60
2024-05-09T04:38:00.556Z,6.67
2024-05-09T04:40:33.159Z,6.71
2024-05-09T04:43:03.835Z,6.74
2024-05-09T04:45:30.607Z,6.71
2024-05-09T04:47:57.495Z,6.75
2024-05-09T04:50:33.795Z,6.80
2024-05-09T04:53:04.836Z,6.85
2024-05-09T04:55:31.699Z,6.83
2024-05-09T04:57:58.328Z,6.91
2024-05-09T05:00:34.421Z,7.04
2024-05-09T05:03:10.313Z,7.10
2024-05-09T05:05:42.422Z,7.11
2024-05-09T05:08:17.525Z,7.12
2024-05-09T05:10:45.819Z,7.17
2024-05-09T05:13:25.091Z,7.24
2024-05-09T05:15:57.359Z,7.31
2024-05-09T05:18:25.659Z,7.50
2024-05-09T05:20:52.707Z,7.74
2024-05-09T05:23:21.119Z,7.94
2024-05-09T05:25:49.192Z,8.10
2024-05-09T05:28:16.854Z,8.17
2024-05-09T05:30:43.815Z,8.11
2024-05-09T05:33:11.986Z,8.05
2024-05-09T05:35:39.153Z,8.05
2024-05-09T05:38:09.891Z,8.07
2024-05-09T05:40:38.524Z,8.16
2024-05-09T05:43:08.423Z,8.24
2024-05-09T05:45:35.349Z,8.37
2024-05-09T05:48:05.498Z,8.50
2024-05-09T05:50:36.350Z,8.67
2024-05-09T05:53:09.360Z,8.88
2024-05-09T05:55:37.588Z,9.07
2024-05-09T05:58:04.452Z,9.20
2024-05-09T06:00:38.132Z,9.30
2024-05-09T06:03:07.519Z,9.44
2024-05-09T06:05:35.682Z,9.57
2024-05-09T06:08:02.535Z,9.73
2024-05-09T06:10:37.481Z,9.81
2024-05-09T06:13:06.941Z,9.96
2024-05-09T06:15:33.499Z,10.11
2024-05-09T06:18:00.590Z,10.25
2024-05-09T06:20:34.969Z,10.41
2024-05-09T06:23:04.881Z,10.57
2024-05-09T06:25:31.693Z,10.73
2024-05-09T06:28:00.231Z,10.88
2024-05-09T06:30:36.494Z,11.14
2024-05-09T06:33:07.210Z,11.37
2024-05-09T06:35:34.406Z,11.56
2024-05-09T06:38:01.539Z,12.63
2024-05-09T06:40:36.700Z,14.59
2024-05-09T06:43:10.772Z,16.51
2024-05-09T06:45:39.465Z,17.74
2024-05-09T06:48:06.917Z,18.62
2024-05-09T06:50:37.622Z,19.34
2024-05-09T06:53:05.844Z,20.21
2024-05-09T06:55:32.577Z,20.76
2024-05-09T06:57:59.135Z,21.29
2024-05-09T07:00:34.555Z,21.63
2024-05-09T07:03:08.967Z,21.97
2024-05-09T07:05:35.840Z,22.41
2024-05-09T07:08:03.095Z,22.72
2024-05-09T07:10:34.805Z,23.06
2024-05-09T07:13:02.573Z,23.39
2024-05-09T07:15:29.113Z,23.58
2024-05-09T07:17:55.834Z,23.35
2024-05-09T07:20:32.322Z,21.56
2024-05-09T07:23:03.039Z,21.13
2024-05-09T07:25:30.014Z,20.91
2024-05-09T07:27:56.834Z,20.52
2024-05-09T07:30:30.847Z,20.56
2024-05-09T07:33:00.864Z,19.93
2024-05-09T07:35:27.844Z,19.99
2024-05-09T07:37:54.629Z,20.15
2024-05-09T07:40:31.822Z,19.37
2024-05-09T07:43:07.098Z,18.16
2024-05-09T07:52:23.413Z,19.64
2024-05-09T07:53:39.170Z,19.90
2024-05-09T07:56:09.963Z,19.99
2024-05-09T07:58:37.327Z,20.40
2024-05-09T08:01:04.245Z,20.52
2024-05-09T08:03:33.803Z,20.50
2024-05-09T08:06:00.585Z,20.31
2024-05-09T08:08:27.143Z,20.52
2024-05-09T08:10:53.850Z,20.76
2024-05-09T08:13:20.714Z,19.86
2024-05-09T08:15:48.610Z,20.22
2024-05-09T08:18:15.555Z,20.64
2024-05-09T08:20:42.331Z,20.84
2024-05-09T08:23:09.120Z,20.39
2024-05-09T08:25:36.392Z,20.02
2024-05-09T08:28:04.662Z,20.37
2024-05-09T08:30:36.723Z,20.74
2024-05-09T08:33:05.861Z,20.96
2024-05-09T08:35:33.266Z,20.76
2024-05-09T08:38:00.053Z,20.22
2024-05-09T08:40:34.083Z,20.54
2024-05-09T08:43:06.689Z,20.91
2024-05-09T08:45:34.970Z,21.06
2024-05-09T08:48:05.586Z,21.12
2024-05-09T08:50:38.507Z,20.93
2024-05-09T08:53:06.893Z,20.62
2024-05-09T08:55:34.216Z,20.54
2024-05-09T08:58:02.455Z,20.93
2024-05-09T09:00:36.766Z,21.50
2024-05-09T09:03:07.607Z,20.99
2024-05-09T09:05:38.308Z,20.79
2024-05-09T09:08:07.801Z,21.19
2024-05-09T09:10:35.226Z,21.76
2024-05-09T09:13:04.168Z,21.96
2024-05-09T09:15:30.975Z,22.07
2024-05-09T09:17:59.182Z,22.37
2024-05-09T09:20:35.812Z,22.09
2024-05-09T09:23:04.029Z,21.98
2024-05-09T09:25:30.807Z,21.81
2024-05-09T09:28:00.831Z,21.60
2024-05-09T09:30:35.162Z,21.29
2024-05-09T09:33:10.629Z,21.07
2024-05-09T09:35:39.961Z,21.12
2024-05-09T09:38:07.763Z,21.63
2024-05-09T09:40:38.931Z,22.05
2024-05-09T09:43:18.490Z,22.54
2024-05-09T09:45:46.809Z,22.91
2024-05-09T09:48:14.824Z,23.32
2024-05-09T09:50:42.039Z,23.44
2024-05-09T09:53:10.165Z,23.55
2024-05-09T09:55:38.416Z,23.73
2024-05-09T09:58:08.593Z,23.86
2024-05-09T10:00:37.613Z,24.01
2024-05-09T10:03:04.466Z,24.04
2024-05-09T10:05:33.501Z,24.23
2024-05-09T10:08:05.073Z,24.52
2024-05-09T10:10:33.706Z,24.34
2024-05-09T10:13:01.258Z,23.76
2024-05-09T10:15:28.105Z,24.15
2024-05-09T10:18:04.029Z,24.27
2024-05-09T10:20:43.977Z,24.27
2024-05-09T10:23:27.151Z,24.22
2024-05-09T10:26:01.944Z,23.24
2024-05-09T10:28:29.902Z,21.40
2024-05-09T10:31:11.038Z,21.11
2024-05-09T10:33:38.428Z,21.41
2024-05-09T10:36:18.459Z,21.64
2024-05-09T10:38:45.045Z,20.72
2024-05-09T10:41:11.876Z,20.36
2024-05-09T10:43:39.786Z,20.58
2024-05-09T10:46:07.193Z,20.87
2024-05-09T10:48:34.421Z,21.60
2024-05-09T10:51:01.231Z,22.70
2024-05-09T10:53:27.949Z,23.14
2024-05-09T10:55:58.437Z,23.37
2024-05-09T10:58:25.663Z,23.76
2024-05-09T11:00:55.531Z,23.37
2024-05-09T11:03:25.851Z,23.42
2024-05-09T11:05:53.620Z,23.41
2024-05-09T11:08:23.984Z,23.70
2024-05-09T11:10:52.552Z,24.15
2024-05-09T11:13:30.295Z,24.14
2024-05-09T11:15:57.512Z,23.94
2024-05-09T11:18:26.469Z,24.18
2024-05-09T11:20:56.330Z,24.49
2024-05-09T11:23:26.161Z,24.59
2024-05-09T11:25:54.463Z,24.60
2024-05-09T11:28:22.471Z,24.63
2024-05-09T11:30:50.466Z,24.27
2024-05-09T11:33:19.476Z,23.55
2024-05-09T11:35:46.813Z,23.51
2024-05-09T11:38:13.799Z,23.40
2024-05-09T11:40:41.539Z,23.62
2024-05-09T11:43:08.399Z,23.50
2024-05-09T11:45:35.051Z,23.40
2024-05-09T11:48:01.947Z,23.46
2024-05-09T11:50:33.142Z,23.51
2024-05-09T11:53:02.576Z,23.51
2024-05-09T11:55:29.280Z,23.60
2024-05-09T11:57:56.773Z,23.48
2024-05-09T12:00:33.795Z,23.42
2024-05-09T12:03:04.958Z,23.33
2024-05-09T12:05:32.281Z,23.42
2024-05-09T12:07:59.100Z,23.37
2024-05-09T12:10:32.726Z,23.26
2024-05-09T12:13:02.467Z,23.22
2024-05-09T12:15:29.554Z,22.66
2024-05-09T12:17:58.913Z,22.05
2024-05-09T12:20:35.313Z,22.06
2024-05-09T12:23:05.024Z,21.66
2024-05-09T12:25:31.580Z,21.43
2024-05-09T12:27:58.259Z,21.68
2024-05-09T12:30:33.143Z,21.93
2024-05-09T12:33:04.920Z,22.20
2024-05-09T12:35:31.721Z,21.68
2024-05-09T12:37:58.409Z,21.82
2024-05-09T12:40:34.226Z,21.97
2024-05-09T12:43:04.489Z,21.81
2024-05-09T12:45:31.431Z,21.92
2024-05-09T12:47:58.438Z,21.37
2024-05-09T12:50:31.812Z,21.61
2024-05-09T12:53:00.562Z,21.94
2024-05-09T12:55:28.441Z,21.91
2024-05-09T12:57:57.285Z,22.19
2024-05-09T13:00:31.089Z,22.48
2024-05-09T13:03:00.723Z,22.57
2024-05-09T13:05:27.912Z,22.67
2024-05-09T13:07:56.189Z,22.35
2024-05-09T13:10:29.231Z,22.26
2024-05-09T13:12:59.608Z,22.57
2024-05-09T13:15:26.469Z,22.38
2024-05-09T13:17:53.215Z,21.80
2024-05-09T13:20:28.952Z,21.77
2024-05-09T13:23:01.632Z,21.51
2024-05-09T13:25:28.256Z,21.79
2024-05-09T13:27:55.912Z,22.45
2024-05-09T13:30:29.611Z,21.86
2024-05-09T13:33:06.345Z,21.40
2024-05-09T13:35:34.881Z,20.74
2024-05-09T13:38:02.486Z,21.06
2024-05-09T13:40:33.780Z,21.38
2024-05-09T13:43:03.332Z,21.77
2024-05-09T13:45:30.119Z,22.07
2024-05-09T13:47:57.174Z,22.04
2024-05-09T13:50:32.918Z,22.05
2024-05-09T13:53:02.368Z,21.64
2024-05-09T13:55:29.011Z,21.52
2024-05-09T13:57:56.101Z,21.39
2024-05-09T14:00:37.258Z,21.47
2024-05-09T14:03:10.140Z,21.50
2024-05-09T14:05:36.952Z,21.52
2024-05-09T14:08:04.114Z,21.35
2024-05-09T14:10:32.166Z,21.41
2024-05-09T14:13:00.049Z,21.50
2024-05-09T14:15:26.958Z,21.52
2024-05-09T14:17:54.321Z,21.53
2024-05-09T14:20:30.314Z,21.23
2024-05-09T14:22:59.282Z,20.91
2024-05-09T14:25:28.276Z,21.00
2024-05-09T14:27:55.348Z,21.05
2024-05-09T14:30:30.564Z,20.93
2024-05-09T14:33:03.463Z,20.59
2024-05-09T14:35:30.198Z,20.30
2024-05-09T14:37:56.889Z,19.74
2024-05-09T14:40:36.623Z,19.29
2024-05-09T14:43:08.628Z,19.40
2024-05-09T14:45:35.618Z,19.25
2024-05-09T14:48:03.308Z,19.58
2024-05-09T14:50:36.003Z,19.54
2024-05-09T14:53:07.235Z,19.88
2024-05-09T14:55:37.287Z,19.84
2024-05-09T14:58:09.084Z,19.77
2024-05-09T15:00:41.315Z,19.63
2024-05-09T15:03:11.261Z,19.69
2024-05-09T15:05:38.023Z,20.21
2024-05-09T15:08:08.438Z,20.37
2024-05-09T15:10:36.685Z,20.32
2024-05-09T15:13:04.924Z,19.64
2024-05-09T15:15:31.924Z,19.80
2024-05-09T15:17:59.656Z,19.80
2024-05-09T15:20:33.501Z,20.06
2024-05-09T15:23:03.071Z,20.44
2024-05-09T15:25:29.935Z,20.56
2024-05-09T15:27:57.044Z,20.80
2024-05-09T15:30:30.950Z,20.88
2024-05-09T15:33:00.751Z,20.67
2024-05-09T15:35:27.697Z,19.86
2024-05-09T15:37:54.451Z,19.58
2024-05-09T15:40:30.712Z,19.51
2024-05-09T15:43:04.774Z,19.37
2024-05-09T15:45:31.958Z,19.45
2024-05-09T15:47:58.961Z,19.42
2024-05-09T15:50:35.412Z,19.38
2024-05-09T15:53:06.463Z,19.43
2024-05-09T15:55:34.326Z,19.34
2024-05-09T15:58:02.641Z,19.03
2024-05-09T16:00:37.330Z,18.91
2024-05-09T16:03:08.351Z,19.20
2024-05-09T16:05:35.197Z,19.30
2024-05-09T16:08:02.522Z,19.38
2024-05-09T16:10:32.802Z,19.47
2024-05-09T16:13:02.183Z,19.27
2024-05-09T16:15:29.283Z,19.34
2024-05-09T16:17:56.194Z,19.50
2024-05-09T16:20:34.197Z,19.13
2024-05-09T16:23:06.297Z,19.23
2024-05-09T16:25:33.007Z,19.41
2024-05-09T16:27:59.867Z,19.42
2024-05-09T16:30:33.754Z,19.14
2024-05-09T16:33:03.054Z,18.99
2024-05-09T16:35:29.998Z,19.16
2024-05-09T16:37:57.019Z,19.15
2024-05-09T16:40:30.389Z,19.32
2024-05-09T16:43:04.424Z,19.04
2024-05-09T16:45:31.540Z,18.93
2024-05-09T16:47:59.056Z,18.95
2024-05-09T16:50:31.069Z,19.01
2024-05-09T16:53:00.125Z,19.13
2024-05-09T16:55:27.094Z,19.13
2024-05-09T16:57:54.288Z,18.91
2024-05-09T17:00:31.139Z,18.74
2024-05-09T17:03:06.661Z,18.55
2024-05-09T17:05:34.125Z,18.46
2024-05-09T17:08:01.289Z,18.27
2024-05-09T17:10:32.809Z,18.12
2024-05-09T17:13:01.843Z,17.94
2024-05-09T17:15:28.678Z,17.98
2024-05-09T17:17:55.934Z,18.03
2024-05-09T17:20:29.706Z,18.14
2024-05-09T17:23:02.286Z,18.13
2024-05-09T17:25:29.278Z,17.98
2024-05-09T17:27:57.188Z,18.04
2024-05-09T17:30:32.109Z,18.14
2024-05-09T17:33:03.833Z,18.23
2024-05-09T17:35:32.046Z,18.31
2024-05-09T17:37:59.624Z,18.26
2024-05-09T17:40:32.631Z,18.19
2024-05-09T17:43:02.493Z,18.30
2024-05-09T17:45:29.550Z,18.23
2024-05-09T17:47:56.282Z,18.03
2024-05-09T17:50:30.286Z,17.93
2024-05-09T17:53:01.666Z,17.74
2024-05-09T17:55:28.635Z,17.60
2024-05-09T17:57:55.487Z,17.44
2024-05-09T18:00:32.815Z,17.50
2024-05-09T18:03:05.584Z,17.41
2024-05-09T18:05:32.562Z,17.25
2024-05-09T18:07:59.282Z,17.05
2024-05-09T18:10:33.094Z,16.84
2024-05-09T18:13:05.609Z,16.72
2024-05-09T18:15:32.837Z,16.61
2024-05-09T18:17:59.948Z,16.51
2024-05-09T18:20:37.861Z,16.42
2024-05-09T18:23:10.620Z,16.40
2024-05-09T18:25:37.271Z,16.37
2024-05-09T18:28:04.686Z,16.27
2024-05-09T18:30:34.609Z,16.23
2024-05-09T18:33:04.301Z,16.21
2024-05-09T18:35:31.679Z,16.14
2024-05-09T18:37:58.279Z,16.13
2024-05-09T18:40:32.846Z,16.04
2024-05-09T18:43:03.503Z,15.92
2024-05-09T18:45:30.624Z,15.83
2024-05-09T18:47:57.777Z,15.84
2024-05-09T18:50:33.727Z,15.81
2024-05-09T18:53:06.204Z,15.75
2024-05-09T18:55:33.143Z,15.72
2024-05-09T18:57:59.952Z,15.60
2024-05-09T19:00:33.876Z,15.52
2024-05-09T19:03:05.649Z,15.40
2024-05-09T19:05:34.260Z,15.22
2024-05-09T19:08:02.361Z,15.09
2024-05-09T19:10:34.013Z,15.02
2024-05-09T19:13:04.369Z,14.97
2024-05-09T19:15:33.868Z,14.96
2024-05-09T19:18:00.728Z,15.00
2024-05-09T19:20:33.171Z,15.00
2024-05-09T19:23:01.402Z,14.97
2024-05-09T19:25:27.964Z,14.97
2024-05-09T19:27:54.572Z,14.96
2024-05-09T19:30:29.781Z,14.95
2024-05-09T19:33:04.656Z,14.92
2024-05-09T19:35:31.488Z,14.90
2024-05-09T19:37:58.357Z,14.84
2024-05-09T19:40:30.892Z,14.68
2024-05-09T19:42:59.756Z,14.67
2024-05-09T19:45:26.376Z,14.55
2024-05-09T19:47:53.103Z,14.50
2024-05-09T19:50:26.882Z,14.45
2024-05-09T19:53:02.343Z,14.38
2024-05-09T19:55:28.917Z,14.26
2024-05-09T19:57:55.519Z,14.20
2024-05-09T20:00:29.151Z,14.21
2024-05-09T20:03:02.053Z,14.26
2024-05-09T20:05:30.743Z,14.25
2024-05-09T20:07:57.685Z,14.18
2024-05-09T20:10:29.804Z,14.04
2024-05-09T20:12:59.650Z,13.97
2024-05-09T20:15:26.420Z,13.98
2024-05-09T20:17:53.340Z,13.96
2024-05-09T20:20:28.414Z,13.94
2024-05-09T20:23:03.054Z,13.90
2024-05-09T20:25:29.814Z,13.81
2024-05-09T20:27:56.415Z,13.75
2024-05-09T20:30:30.510Z,13.71
2024-05-09T20:32:59.240Z,13.68
2024-05-09T20:35:26.665Z,13.62
2024-05-09T20:37:53.276Z,13.57
2024-05-09T20:40:28.254Z,13.52
2024-05-09T20:42:58.946Z,13.41
2024-05-09T20:45:25.778Z,13.32
2024-05-09T20:47:52.628Z,13.28
2024-05-09T20:50:28.142Z,13.22
2024-05-09T20:53:02.691Z,13.14
2024-05-09T20:55:30.040Z,13.06
2024-05-09T20:57:57.171Z,13.01
2024-05-09T21:00:33.675Z,12.95
2024-05-09T21:03:06.347Z,12.82
2024-05-09T21:05:33.727Z,12.72
2024-05-09T21:08:00.743Z,12.67
2024-05-09T21:10:31.560Z,12.64
2024-05-09T21:12:59.599Z,12.61
2024-05-09T21:15:26.215Z,12.58
2024-05-09T21:17:52.782Z,12.52
2024-05-09T21:20:24.295Z,12.50
2024-05-09T21:22:57.526Z,12.47
2024-05-09T21:25:24.191Z,12.42
2024-05-09T21:27:50.917Z,12.38
2024-05-09T21:30:26.786Z,12.34
2024-05-09T21:32:59.330Z,12.27
2024-05-09T21:35:25.993Z,12.22
2024-05-09T21:37:52.552Z,12.18
2024-05-09T21:40:27.234Z,12.14
2024-05-09T21:43:00.771Z,12.09
2024-05-09T21:45:27.560Z,12.04
2024-05-09T21:47:54.295Z,11.91
2024-05-09T21:50:27.630Z,11.83
2024-05-09T21:52:58.869Z,11.82
2024-05-09T21:55:25.662Z,11.78
2024-05-09T21:57:52.366Z,11.77
2024-05-09T22:00:28.674Z,11.74
2024-05-09T22:03:02.282Z,11.71
2024-05-09T22:05:29.339Z,11.68
2024-05-09T22:07:56.512Z,11.68
2024-05-09T22:10:27.162Z,11.66
2024-05-09T22:13:00.095Z,11.63
2024-05-09T22:15:27.014Z,11.60
2024-05-09T22:17:53.774Z,11.54
2024-05-09T22:20:28.740Z,11.54
2024-05-09T22:23:02.349Z,11.54
2024-05-09T22:25:30.785Z,11.53
2024-05-09T22:27:58.083Z,11.52
2024-05-09T22:30:33.167Z,11.52
2024-05-09T22:33:03.748Z,11.50
2024-05-09T22:35:30.427Z,11.49
2024-05-09T22:37:57.006Z,11.46
2024-05-09T22:40:32.285Z,11.47
2024-05-09T22:43:05.968Z,11.46
2024-05-09T22:45:32.854Z,11.43
2024-05-09T22:47:59.768Z,11.40
2024-05-09T22:50:30.607Z,11.38
2024-05-09T22:52:59.251Z,11.35
2024-05-09T22:55:25.790Z,11.31
2024-05-09T22:57:52.424Z,11.28
2024-05-09T23:00:26.300Z,11.21
2024-05-09T23:02:57.892Z,11.15
2024-05-09T23:05:24.525Z,11.13
2024-05-09T23:07:51.183Z,11.12
2024-05-09T23:10:25.038Z,11.13
2024-05-09T23:12:58.548Z,11.13
2024-05-09T23:15:25.239Z,11.12
2024-05-09T23:17:52.006Z,11.10
2024-05-09T23:20:29.638Z,11.06
2024-05-09T23:23:03.219Z,11.02
2024-05-09T23:25:29.790Z,10.98
2024-05-09T23:27:56.547Z,10.95
2024-05-09T23:30:33.097Z,10.92
2024-05-09T23:33:04.719Z,10.88
2024-05-09T23:35:31.408Z,10.86
2024-05-09T23:37:58.009Z,10.82
2024-05-09T23:40:34.735Z,10.78
2024-05-09T23:43:05.336Z,10.75
2024-05-09T23:45:31.916Z,10.71
2024-05-09T23:47:58.668Z,10.67
2024-05-09T23:50:33.579Z,10.63
2024-05-09T23:53:03.268Z,10.59
2024-05-09T23:55:31.174Z,10.55
2024-05-09T23:57:57.911Z,10.48
